Time;durP1;ratioP1;P1;durP2;ratioP2;P2;SDS_P1;SDS_P2;PMS_P1;PMS_P2;Temp;Humidity;BMP_temperature;BMP_pressure;BME280_temperature;BME280_humidity;BME280_pressure;Samples;Min_cycle;Max_cycle;Signal;HPM_P1;HPM_P2
2022/05/23 00:00:57;;;;;;;5.60;2.28;;;;;;;15.69;63.48;100814.13;5036351;28;20854;-70
2022/05/23 00:03:22;;;;;;;3.80;2.25;;;;;;;15.69;63.86;100807.88;5034881;28;20048;-70
2022/05/23 00:05:48;;;;;;;7.13;2.50;;;;;;;15.66;64.05;100805.44;5036955;28;20091;-69
2022/05/23 00:08:13;;;;;;;8.00;2.47;;;;;;;15.60;65.34;100797.88;5035854;28;20041;-69
2022/05/23 00:10:39;;;;;;;6.88;3.17;;;;;;;15.57;64.22;100795.47;5037328;28;20041;-70
2022/05/23 00:13:06;;;;;;;6.38;2.22;;;;;;;15.58;64.76;100789.97;5035990;28;20399;-69
2022/05/23 00:15:31;;;;;;;5.15;2.78;;;;;;;15.52;65.35;100785.97;5036333;28;20095;-69
2022/05/23 00:17:57;;;;;;;4.47;2.88;;;;;;;15.55;64.61;100783.00;5036003;28;20148;-68
2022/05/23 00:20:24;;;;;;;5.05;2.17;;;;;;;15.58;65.27;100786.41;5034715;28;20161;-68
2022/05/23 00:22:50;;;;;;;5.88;2.55;;;;;;;15.58;64.61;100783.72;5033415;28;20122;-69
2022/05/23 00:25:16;;;;;;;4.45;2.28;;;;;;;15.46;65.34;100778.44;5033970;28;20135;-68
2022/05/23 00:27:46;;;;;;;5.78;2.97;;;;;;;15.47;65.49;100780.13;5033874;28;20742;-68
2022/05/23 00:30:23;;;;;;;3.65;2.78;;;;;;;15.48;65.32;100765.69;5034674;28;20037;-68
2022/05/23 00:35:34;;;;;;;6.32;2.58;;;;;;;15.40;65.27;100762.78;5034866;28;20127;-69
2022/05/23 00:38:00;;;;;;;4.63;2.72;;;;;;;15.54;64.32;100767.00;5034939;28;20079;-68
2022/05/23 00:40:50;;;;;;;5.72;2.63;;;;;;;15.50;64.94;100762.88;5034360;28;20064;-70
2022/05/23 00:43:25;;;;;;;3.85;2.58;;;;;;;15.39;65.19;100754.88;5033673;28;20756;-70
2022/05/23 00:45:54;;;;;;;6.07;2.50;;;;;;;15.40;65.21;100752.03;5034872;28;20136;-69
2022/05/23 00:48:26;;;;;;;5.75;2.63;;;;;;;15.47;64.13;100737.13;5034813;28;20064;-69
2022/05/23 00:51:01;;;;;;;6.03;2.83;;;;;;;15.42;64.94;100733.97;5052850;28;20747;-69
2022/05/23 00:53:51;;;;;;;7.93;2.67;;;;;;;15.39;65.00;100722.63;5055649;28;20071;-69
2022/05/23 00:56:20;;;;;;;3.97;2.83;;;;;;;15.36;65.03;100710.31;5055145;28;20045;-70
2022/05/23 00:58:51;;;;;;;5.38;2.65;;;;;;;15.36;64.70;100701.38;5055636;28;20040;-70
2022/05/23 01:01:25;;;;;;;10.35;2.65;;;;;;;15.40;64.94;100705.53;5053795;28;20048;-69
2022/05/23 01:03:50;;;;;;;5.68;2.53;;;;;;;15.37;65.66;100695.06;5053125;28;20817;-69
2022/05/23 01:06:16;;;;;;;4.07;2.50;;;;;;;15.32;65.78;100694.59;5053400;28;20036;-69
2022/05/23 01:08:44;;;;;;;4.13;2.40;;;;;;;15.28;66.10;100683.25;5053643;28;20114;-69
2022/05/23 01:11:11;;;;;;;3.65;2.78;;;;;;;15.24;65.92;100681.81;5053131;28;20083;-69
2022/05/23 01:13:36;;;;;;;6.70;3.05;;;;;;;15.27;65.72;100674.34;5053544;28;20044;-69
2022/05/23 01:16:02;;;;;;;3.42;2.63;;;;;;;15.18;66.39;100669.75;5053204;28;20041;-65
2022/05/23 01:18:32;;;;;;;5.78;3.10;;;;;;;15.24;66.11;100669.22;5052975;28;20043;-70
2022/05/23 01:21:01;;;;;;;9.00;3.05;;;;;;;15.25;66.11;100657.47;5049525;28;20037;-69
2022/05/23 01:23:46;;;;;;;7.65;2.78;;;;;;;15.28;65.99;100662.59;5032467;28;20932;-69
2022/05/23 01:26:17;;;;;;;4.72;3.10;;;;;;;15.23;66.66;100667.53;5032930;28;20065;-69
2022/05/23 01:28:47;;;;;;;6.78;3.10;;;;;;;15.25;65.90;100670.91;5028747;28;20041;-69
2022/05/23 01:31:28;;;;;;;7.97;3.38;;;;;;;15.27;66.04;100677.03;5012731;28;20037;-69
2022/05/23 01:33:57;;;;;;;5.65;3.08;;;;;;;15.26;66.01;100678.03;5012034;28;20033;-69
2022/05/23 01:36:22;;;;;;;5.22;3.05;;;;;;;15.25;66.44;100678.97;5012438;28;20033;-69
2022/05/23 01:38:47;;;;;;;7.38;3.38;;;;;;;15.18;67.19;100677.81;5012369;28;20049;-69
2022/05/23 01:41:21;;;;;;;5.93;3.10;;;;;;;15.22;67.10;100673.03;5013773;28;20332;-70
2022/05/23 01:43:54;;;;;;;6.55;3.20;;;;;;;15.20;66.70;100675.84;5011874;28;20132;-69
2022/05/23 01:46:26;;;;;;;5.03;3.30;;;;;;;15.17;66.87;100684.16;5012430;28;20044;-71
2022/05/23 01:49:08;;;;;;;7.78;3.75;;;;;;;15.13;67.75;100673.81;5022294;28;20106;-69
2022/05/23 01:51:34;;;;;;;6.20;3.40;;;;;;;15.09;67.37;100667.00;5053626;28;20382;-69
2022/05/23 01:53:59;;;;;;;6.20;3.42;;;;;;;15.05;67.68;100670.91;5036074;28;20043;-69
2022/05/23 01:56:25;;;;;;;11.35;3.83;;;;;;;14.97;69.15;100674.28;5052662;28;20040;-69
2022/05/23 02:01:39;;;;;;;5.88;3.17;;;;;;;14.96;68.71;100668.06;5053048;28;20980;-70
2022/05/23 02:04:04;;;;;;;8.45;3.70;;;;;;;14.91;69.15;100664.91;5052150;28;20041;-69
2022/05/23 02:06:39;;;;;;;5.75;3.50;;;;;;;14.94;69.25;100656.56;5052686;28;20473;-70
2022/05/23 02:09:12;;;;;;;6.22;3.70;;;;;;;14.96;68.99;100662.69;5054043;28;20048;-69
2022/05/23 02:11:48;;;;;;;11.07;3.70;;;;;;;14.87;69.57;100659.91;5053123;28;20032;-69
2022/05/23 02:14:21;;;;;;;5.65;3.35;;;;;;;14.91;70.02;100667.59;5051455;28;20051;-69
2022/05/23 02:16:46;;;;;;;8.85;4.25;;;;;;;14.87;69.96;100657.22;5052121;28;20041;-69
2022/05/23 02:19:12;;;;;;;6.85;3.55;;;;;;;14.91;69.37;100659.53;5053613;28;20110;-70
2022/05/23 02:21:40;;;;;;;6.75;4.13;;;;;;;14.86;70.18;100664.44;5044390;28;20037;-70
2022/05/23 02:24:06;;;;;;;4.93;3.72;;;;;;;14.84;69.54;100650.28;5033987;28;20147;-69
2022/05/23 02:26:32;;;;;;;12.05;3.78;;;;;;;14.88;69.40;100658.94;5032360;28;20064;-70
2022/05/23 02:29:02;;;;;;;5.88;3.33;;;;;;;14.67;71.75;100664.28;5029507;28;20111;-69
2022/05/23 02:31:30;;;;;;;5.15;3.88;;;;;;;14.86;71.10;100664.44;5012735;28;20042;-69
2022/05/23 02:34:03;;;;;;;9.55;3.40;;;;;;;14.75;71.56;100659.09;5029399;28;20077;-69
2022/05/23 02:36:37;;;;;;;8.02;3.63;;;;;;;14.80;70.89;100659.56;5012629;28;20039;-69
2022/05/23 02:39:04;;;;;;;6.82;3.75;;;;;;;14.74;70.43;100650.19;5011070;28;20216;-69
2022/05/23 02:41:30;;;;;;;5.53;4.10;;;;;;;14.61;72.00;100657.59;5011549;28;20041;-70
2022/05/23 02:43:56;;;;;;;5.57;3.72;;;;;;;14.71;70.81;100646.94;5012637;28;20395;-69
2022/05/23 02:46:24;;;;;;;8.63;4.18;;;;;;;14.63;71.43;100639.50;5012212;28;20030;-69
2022/05/23 02:48:51;;;;;;;7.05;4.30;;;;;;;14.61;71.11;100635.25;5018121;28;20474;-69
2022/05/23 02:51:17;;;;;;;7.03;4.25;;;;;;;14.63;71.06;100636.81;5052232;28;20032;-69
2022/05/23 02:53:47;;;;;;;5.80;3.92;;;;;;;14.53;71.93;100627.00;5053366;28;20639;-69
2022/05/23 02:56:12;;;;;;;12.65;4.47;;;;;;;14.55;71.60;100623.19;5051566;28;20028;-69
2022/05/23 02:58:38;;;;;;;13.25;4.57;;;;;;;14.48;71.93;100620.19;5052692;28;20497;-69
2022/05/23 03:01:04;;;;;;;6.13;4.07;;;;;;;14.63;71.15;100618.03;5051732;28;20591;-69
2022/05/23 03:03:33;;;;;;;7.22;3.72;;;;;;;14.47;71.69;100621.16;5051868;28;20225;-70
2022/05/23 03:06:03;;;;;;;8.35;4.15;;;;;;;14.57;71.34;100615.03;5051776;28;20036;-69
2022/05/23 03:08:31;;;;;;;8.70;3.65;;;;;;;14.53;71.90;100605.53;5052743;28;20071;-69
2022/05/23 03:11:00;;;;;;;7.30;4.32;;;;;;;14.54;71.75;100602.72;5050702;28;20907;-69
2022/05/23 03:13:26;;;;;;;7.55;4.40;;;;;;;14.46;71.83;100597.97;5035255;28;20708;-69
2022/05/23 03:15:52;;;;;;;7.32;4.53;;;;;;;14.39;73.03;100593.22;5054493;28;20038;-67
2022/05/23 03:18:18;;;;;;;15.25;5.13;;;;;;;14.48;72.20;100590.66;5052238;28;20710;-70
2022/05/23 03:20:44;;;;;;;11.70;4.65;;;;;;;14.29;73.69;100592.28;5050166;28;20117;-69
2022/05/23 03:28:52;;;;;;;5.85;4.05;;;;;;;14.24;73.48;100566.69;5014635;28;20127;-69
2022/05/23 03:31:18;;;;;;;10.80;4.43;;;;;;;14.30;73.12;100565.34;4997683;28;20025;-70
2022/05/23 03:33:43;;;;;;;8.73;4.63;;;;;;;14.27;73.70;100557.56;4997999;28;20068;-69
2022/05/23 03:36:10;;;;;;;7.57;4.90;;;;;;;14.20;74.75;100543.78;5013694;28;20156;-69
2022/05/23 03:38:36;;;;;;;11.60;5.00;;;;;;;14.10;74.81;100542.00;4996875;28;20217;-69
2022/05/23 03:41:09;;;;;;;11.23;4.82;;;;;;;14.06;75.14;100545.94;4995885;28;20050;-70
2022/05/23 03:43:35;;;;;;;8.70;5.00;;;;;;;14.17;74.48;100530.66;4994239;28;20054;-69
2022/05/23 03:46:08;;;;;;;7.68;4.80;;;;;;;14.16;74.76;100523.59;4994399;28;20156;-69
2022/05/23 03:48:35;;;;;;;9.75;4.97;;;;;;;14.23;74.19;100519.41;4994667;28;20084;-70
2022/05/23 03:51:01;;;;;;;10.07;5.03;;;;;;;14.28;74.00;100516.34;4996857;28;20045;-69
2022/05/23 03:53:29;;;;;;;9.70;5.30;;;;;;;14.31;73.93;100505.38;5013129;28;20071;-69
2022/05/23 03:55:58;;;;;;;7.10;4.45;;;;;;;14.35;74.00;100505.94;5013290;28;20550;-69
2022/05/23 03:58:25;;;;;;;7.85;5.32;;;;;;;14.25;74.51;100495.13;4996700;28;20042;-69
2022/05/23 04:01:17;;;;;;;11.23;5.95;;;;;;;14.32;73.80;100498.16;5018861;28;20561;-68
2022/05/23 04:03:46;;;;;;;7.00;4.90;;;;;;;14.39;74.13;100494.81;5019376;28;20603;-69
2022/05/23 04:06:12;;;;;;;10.82;4.72;;;;;;;14.47;73.83;100489.69;5019103;28;20038;-69
2022/05/23 04:09:03;;;;;;;8.98;5.40;;;;;;;14.46;74.04;100487.97;5033961;28;20041;-69
2022/05/23 04:11:30;;;;;;;8.95;5.10;;;;;;;14.47;74.08;100483.44;5034948;28;20037;-69
2022/05/23 04:13:57;;;;;;;11.05;5.78;;;;;;;14.59;73.70;100479.72;5035530;28;20370;-69
2022/05/23 04:16:27;;;;;;;9.20;5.70;;;;;;;14.53;74.03;100469.53;5034146;28;20529;-69
2022/05/23 04:18:52;;;;;;;13.48;5.55;;;;;;;14.53;74.04;100474.91;5034432;28;20048;-69
2022/05/23 04:21:18;;;;;;;8.65;5.22;;;;;;;14.53;74.16;100466.84;5035039;28;20037;-69
2022/05/23 04:23:46;;;;;;;9.30;5.88;;;;;;;14.67;73.92;100479.09;5035267;28;20051;-69
2022/05/23 04:26:12;;;;;;;11.07;5.65;;;;;;;14.66;73.71;100472.00;5017969;28;20041;-69
2022/05/23 04:28:41;;;;;;;13.32;6.13;;;;;;;14.68;74.25;100465.53;5030175;28;20033;-69
2022/05/23 04:31:09;;;;;;;7.13;5.70;;;;;;;14.74;74.00;100464.97;5027694;28;20841;-69
2022/05/23 04:36:39;;;;;;;10.57;5.85;;;;;;;14.91;73.60;100459.97;5029122;28;20056;-69
2022/05/23 04:39:05;;;;;;;7.90;5.50;;;;;;;15.11;72.79;100460.91;5032878;28;20037;-69
2022/05/23 04:41:34;;;;;;;8.90;6.10;;;;;;;15.17;73.41;100455.84;5033524;28;20036;-70
2022/05/23 04:44:00;;;;;;;10.68;5.68;;;;;;;15.28;73.01;100457.59;5031091;28;20114;-70
2022/05/23 04:46:27;;;;;;;13.57;6.65;;;;;;;15.65;72.04;100448.91;5026923;28;20032;-69
2022/05/23 04:51:59;;;;;;;8.65;5.55;;;;;;;16.01;71.10;100447.38;5032818;28;20065;-69
2022/05/23 04:54:32;;;;;;;13.35;6.18;;;;;;;16.06;69.71;100431.66;5034747;28;20036;-70
2022/05/23 04:57:00;;;;;;;8.25;5.65;;;;;;;16.21;70.37;100429.38;5035127;28;20041;-69
2022/05/23 04:59:31;;;;;;;8.93;5.53;;;;;;;16.46;68.30;100434.16;5034544;28;20041;-69
2022/05/23 05:01:56;;;;;;;9.75;5.85;;;;;;;16.73;67.83;100425.34;5033626;28;20059;-70
2022/05/23 05:04:22;;;;;;;13.52;6.13;;;;;;;16.83;68.58;100428.84;5025057;28;20033;-70
2022/05/23 05:06:47;;;;;;;9.15;5.90;;;;;;;16.75;68.68;100427.88;4994875;28;20824;-69
2022/05/23 05:09:12;;;;;;;11.65;5.95;;;;;;;16.95;67.00;100428.63;5010295;28;20156;-69
2022/05/23 05:11:39;;;;;;;9.80;6.25;;;;;;;17.70;65.59;100435.56;5011310;28;20128;-70
2022/05/23 05:14:27;;;;;;;10.05;6.55;;;;;;;17.69;66.07;100428.50;5027752;28;20557;-69
2022/05/23 05:16:54;;;;;;;13.75;5.82;;;;;;;18.00;64.43;100415.50;5018336;28;20025;-69
2022/05/23 05:19:20;;;;;;;8.57;5.97;;;;;;;17.72;64.95;100421.94;5013994;28;20040;-69
2022/05/23 05:22:05;;;;;;;11.13;6.70;;;;;;;17.25;66.12;100412.19;5021026;28;20165;-69
2022/05/23 05:25:05;;;;;;;10.18;5.93;;;;;;;17.45;67.71;100409.38;5028854;28;20040;-69
2022/05/23 05:27:35;;;;;;;8.57;5.60;;;;;;;17.62;67.07;100403.16;5021855;28;20072;-70
2022/05/23 05:30:03;;;;;;;8.07;6.30;;;;;;;17.33;67.75;100398.81;5009200;28;20033;-69
2022/05/23 05:32:40;;;;;;;11.38;6.35;;;;;;;17.25;67.90;100390.63;5009120;28;20064;-69
2022/05/23 05:35:24;;;;;;;11.10;6.40;;;;;;;17.48;68.34;100390.19;5026435;28;20057;-69
2022/05/23 05:37:57;;;;;;;11.45;6.25;;;;;;;17.42;68.64;100396.19;5029836;28;20041;-69
2022/05/23 05:40:25;;;;;;;9.30;6.63;;;;;;;17.67;67.48;100395.44;5029627;28;20037;-69
2022/05/23 05:42:57;;;;;;;10.52;6.70;;;;;;;17.57;67.00;100391.94;5029741;28;20080;-69
2022/05/23 05:45:41;;;;;;;9.18;5.88;;;;;;;18.00;65.55;100390.38;5028490;28;20049;-70
2022/05/23 05:48:28;;;;;;;12.02;6.47;;;;;;;18.55;64.76;100377.41;5023022;28;20053;-69
2022/05/23 05:50:53;;;;;;;10.40;5.88;;;;;;;18.57;64.34;100372.69;5031903;28;20114;-69
2022/05/23 05:53:30;;;;;;;9.43;6.03;;;;;;;18.81;63.57;100365.75;5027582;28;20036;-70
2022/05/23 05:56:00;;;;;;;9.95;6.40;;;;;;;18.63;63.90;100358.56;5026539;28;20030;-71
2022/05/23 05:58:27;;;;;;;10.35;5.65;;;;;;;19.05;62.42;100349.63;5028084;28;20079;-70
2022/05/23 06:00:55;;;;;;;10.30;5.70;;;;;;;19.25;62.73;100346.66;5029315;28;20829;-69
2022/05/23 06:03:23;;;;;;;8.98;6.63;;;;;;;19.95;61.57;100355.19;5011557;28;20449;-69
2022/05/23 06:11:36;;;;;;;10.68;5.55;;;;;;;19.87;59.62;100355.19;5009632;28;20037;-69
2022/05/23 06:14:12;;;;;;;12.10;5.85;;;;;;;20.07;61.38;100350.28;5010154;28;20135;-70
2022/05/23 06:16:40;;;;;;;10.23;6.45;;;;;;;19.99;62.16;100342.19;5011598;28;20029;-70
2022/05/23 06:19:14;;;;;;;10.48;6.35;;;;;;;20.19;61.56;100346.22;5007772;28;20052;-69
2022/05/23 06:21:59;;;;;;;;;;;;;;;20.09;61.31;100340.97;5021352;28;20148;-70
2022/05/23 06:24:24;;;;;;;8.75;5.57;;;;;;;20.08;61.56;100346.53;5012643;28;19920;-70
2022/05/23 06:26:56;;;;;;;9.13;5.80;;;;;;;19.78;60.29;100345.38;5030687;28;20021;-69
2022/05/23 06:29:22;;;;;;;8.82;6.07;;;;;;;19.56;62.55;100345.00;5030838;28;20036;-68
2022/05/23 06:31:47;;;;;;;11.88;6.20;;;;;;;19.52;62.17;100340.94;5031547;28;20757;-70
2022/05/23 06:34:16;;;;;;;13.30;5.63;;;;;;;19.78;61.53;100343.53;5029025;28;20124;-69
2022/05/23 06:36:44;;;;;;;11.23;6.25;;;;;;;19.72;60.83;100341.50;5030494;28;20494;-68
2022/05/23 06:39:10;;;;;;;13.88;6.97;;;;;;;19.72;59.89;100346.06;5029901;28;20037;-68
2022/05/23 06:42:02;;;;;;;10.13;6.60;;;;;;;20.04;59.75;100342.50;5022436;28;20063;-69
2022/05/23 06:44:46;;;;;;;12.70;6.57;;;;;;;20.47;60.62;100324.16;5031082;28;20056;-69
2022/05/23 06:47:32;;;;;;;10.50;6.05;;;;;;;20.42;59.56;100327.34;5030834;28;20065;-69
2022/05/23 06:50:16;;;;;;;10.73;6.47;;;;;;;20.75;60.90;100309.16;5043601;28;20056;-69
2022/05/23 06:53:05;;;;;;;9.85;5.90;;;;;;;20.34;58.34;100316.56;5044515;28;20160;-69
2022/05/23 06:55:57;;;;;;;11.82;6.78;;;;;;;20.55;59.58;100310.59;5048852;28;20843;-69
2022/05/23 06:58:23;;;;;;;7.65;5.93;;;;;;;20.88;57.93;100309.44;5048132;28;20036;-68
2022/05/23 07:00:51;;;;;;;8.73;5.93;;;;;;;21.02;57.08;100309.69;5047816;28;20040;-68
2022/05/23 07:03:21;;;;;;;8.83;5.10;;;;;;;21.19;55.85;100312.16;5047547;28;20060;-69
2022/05/23 07:14:14;;;;;;;9.27;5.82;;;;;;;21.39;58.25;100282.72;5007067;28;20170;-68
2022/05/23 07:16:39;;;;;;;11.27;6.30;;;;;;;21.30;56.33;100281.09;5009431;28;20045;-69
2022/05/23 07:19:07;;;;;;;7.80;6.32;;;;;;;21.04;56.69;100281.41;5007360;28;20115;-69
2022/05/23 07:21:46;;;;;;;9.75;6.00;;;;;;;21.05;57.15;100271.41;5017010;28;20041;-69
2022/05/23 07:24:14;;;;;;;9.30;6.32;;;;;;;20.87;59.05;100267.09;5026664;28;20092;-69
2022/05/23 07:26:48;;;;;;;7.53;5.28;;;;;;;21.15;59.26;100263.88;5026311;28;20214;-68
2022/05/23 07:29:15;;;;;;;7.57;5.30;;;;;;;21.28;58.76;100268.69;5026463;28;20037;-68
2022/05/23 07:31:44;;;;;;;10.77;5.68;;;;;;;21.38;56.95;100261.19;5027139;28;20649;-68
2022/05/23 07:34:10;;;;;;;9.40;6.20;;;;;;;21.12;57.65;100256.94;5027694;28;20035;-69
2022/05/23 07:36:35;;;;;;;7.45;6.07;;;;;;;21.10;56.97;100261.69;5027231;28;20044;-68
2022/05/23 07:39:08;;;;;;;10.02;6.13;;;;;;;21.03;59.23;100265.28;5025975;28;20044;-67
2022/05/23 07:41:46;;;;;;;7.60;5.32;;;;;;;21.41;57.60;100260.81;5019191;28;20059;-67
2022/05/23 07:44:14;;;;;;;13.18;5.60;;;;;;;21.35;56.39;100259.69;5006862;28;20123;-67
2022/05/23 07:46:43;;;;;;;11.25;6.32;;;;;;;21.04;55.95;100256.16;5019116;28;20036;-69
2022/05/23 07:49:11;;;;;;;9.90;5.75;;;;;;;21.20;55.49;100253.31;5032956;28;20059;-68
2022/05/23 07:51:39;;;;;;;12.13;5.85;;;;;;;21.49;55.05;100254.47;5044482;28;20045;-66
2022/05/23 08:02:57;;;;;;;8.00;5.82;;;;;;;22.09;53.75;100234.53;5012791;28;20108;-68
2022/05/23 08:05:24;;;;;;;7.05;5.00;;;;;;;21.98;53.24;100219.56;5019626;28;20029;-67
2022/05/23 08:07:52;;;;;;;7.93;5.03;;;;;;;21.87;54.80;100220.88;5011349;28;20797;-68
2022/05/23 08:10:18;;;;;;;4.78;4.22;;;;;;;22.09;52.97;100210.97;5010062;28;20041;-67
2022/05/23 08:12:49;;;;;;;6.32;4.90;;;;;;;22.60;51.05;100204.75;5030987;28;20045;-67
2022/05/23 08:15:16;;;;;;;6.00;4.47;;;;;;;22.24;51.71;100205.56;5031168;28;20052;-67
2022/05/23 08:17:43;;;;;;;5.75;4.35;;;;;;;22.39;51.84;100211.81;5032851;28;20083;-67
2022/05/23 08:20:29;;;;;;;8.05;4.90;;;;;;;22.35;51.88;100206.97;5030987;28;20072;-67
2022/05/23 08:22:55;;;;;;;7.95;4.45;;;;;;;22.98;52.90;100203.53;5031778;28;20913;-67
2022/05/23 08:25:30;;;;;;;7.97;4.32;;;;;;;23.12;50.82;100198.22;5032034;28;20045;-68
2022/05/23 08:27:56;;;;;;;6.00;3.95;;;;;;;23.37;50.73;100191.34;5031179;28;20035;-67
2022/05/23 08:30:22;;;;;;;4.88;3.83;;;;;;;24.34;49.99;100182.34;5029755;28;20719;-67
2022/05/23 08:32:53;;;;;;;6.90;4.05;;;;;;;23.73;49.68;100185.78;5015420;28;20056;-67
2022/05/23 08:35:21;;;;;;;6.80;3.70;;;;;;;23.55;48.98;100185.41;5030829;28;20127;-67
2022/05/23 08:37:56;;;;;;;5.07;3.50;;;;;;;23.29;49.72;100196.06;5031545;28;20852;-67
2022/05/23 08:41:19;;;;;;;4.93;3.42;;;;;;;22.80;49.48;100189.50;5033555;28;20091;-67
2022/05/23 08:44:10;;;;;;;5.43;3.60;;;;;;;22.81;50.27;100191.19;4994874;28;20564;-67
2022/05/23 08:47:03;;;;;;;6.20;3.10;;;;;;;23.91;49.50;100184.44;5029789;28;20211;-69
2022/05/23 08:49:50;;;;;;;9.13;3.78;;;;;;;24.78;50.13;100181.06;5032656;28;20068;-67
2022/05/23 08:52:28;;;;;;;6.85;3.78;;;;;;;24.04;49.13;100181.78;5030812;28;20037;-67
2022/05/23 08:55:20;;;;;;;5.55;3.88;;;;;;;24.12;48.00;100183.50;5030824;28;20029;-67
2022/05/23 08:58:21;;;;;;;5.25;3.47;;;;;;;23.09;50.42;100177.69;5020441;28;20060;-68
2022/05/23 09:00:53;;;;;;;10.63;4.28;;;;;;;23.60;50.26;100180.22;5032339;28;20119;-67
2022/05/23 09:03:30;;;;;;;5.60;3.80;;;;;;;23.87;47.92;100173.09;5031228;28;20048;-67
2022/05/23 09:06:02;;;;;;;4.95;3.85;;;;;;;23.11;49.96;100172.91;5030893;28;20091;-68
2022/05/23 09:08:30;;;;;;;;;;;;;;;23.91;48.58;100163.50;5031519;28;20040;-67
2022/05/23 09:11:05;;;;;;;4.10;3.17;;;;;;;24.38;49.05;100164.56;5047686;28;19927;-68
2022/05/23 09:13:36;;;;;;;7.22;3.28;;;;;;;24.27;47.31;100148.78;5032278;28;20135;-68
2022/05/23 09:16:04;;;;;;;6.18;3.45;;;;;;;23.99;48.89;100151.56;5031603;28;20097;-67
2022/05/23 09:18:44;;;;;;;6.53;3.78;;;;;;;24.38;46.51;100150.94;5033726;28;20144;-68
2022/05/23 09:21:10;;;;;;;6.93;3.85;;;;;;;24.48;47.15;100151.41;5032942;28;20072;-68
2022/05/23 09:23:52;;;;;;;7.43;4.00;;;;;;;25.10;45.78;100149.44;5032804;28;20966;-68
2022/05/23 09:26:25;;;;;;;7.13;3.78;;;;;;;25.54;45.53;100146.06;5033147;28;20846;-68
2022/05/23 09:28:51;;;;;;;7.35;3.80;;;;;;;24.46;47.08;100137.16;5027839;28;20074;-67
2022/05/23 09:31:18;;;;;;;8.80;4.28;;;;;;;24.21;47.55;100138.69;5012590;28;20084;-67
2022/05/23 09:33:46;;;;;;;8.85;3.85;;;;;;;24.20;48.12;100137.88;5013290;28;20836;-67
2022/05/23 09:36:18;;;;;;;6.05;3.83;;;;;;;23.82;48.95;100128.44;5013323;28;20039;-68
2022/05/23 09:38:46;;;;;;;5.82;3.83;;;;;;;24.14;49.42;100124.19;5013953;28;20139;-69
2022/05/23 09:47:44;;;;;;;14.30;4.60;;;;;;;24.30;48.58;100126.59;5011438;28;20037;-69
2022/05/23 09:49:47;;;;;;;6.43;4.35;;;;;;;25.29;44.54;100095.91;5033298;28;20040;-69
2022/05/23 09:52:31;;;;;;;5.47;4.00;;;;;;;25.04;46.30;100093.78;5050856;28;20044;-68
2022/05/23 09:55:03;;;;;;;7.25;4.18;;;;;;;23.94;48.22;100091.41;5051441;28;20071;-69
2022/05/23 09:57:36;;;;;;;5.65;4.10;;;;;;;23.86;47.75;100081.56;5050623;28;20068;-68
2022/05/23 10:00:25;;;;;;;8.10;4.43;;;;;;;24.61;48.42;100079.72;5051642;28;20044;-69
2022/05/23 10:03:00;;;;;;;9.35;4.72;;;;;;;24.70;48.79;100074.88;5051965;28;20044;-69
2022/05/23 10:05:30;;;;;;;9.77;4.70;;;;;;;25.50;47.13;100065.66;5051392;28;20837;-67
2022/05/23 10:08:00;;;;;;;9.45;4.88;;;;;;;25.94;47.19;100055.84;5050730;28;20044;-68
2022/05/23 10:10:53;;;;;;;10.82;4.75;;;;;;;25.59;47.68;100049.84;5052349;28;20032;-68
2022/05/23 10:13:24;;;;;;;8.88;4.82;;;;;;;25.05;48.11;100059.16;5049779;28;20102;-68
2022/05/23 10:15:53;;;;;;;10.20;4.45;;;;;;;24.47;46.73;100058.94;5053336;28;20092;-67
2022/05/23 10:18:30;;;;;;;8.48;4.72;;;;;;;24.56;47.31;100051.41;5052508;28;20652;-67
2022/05/23 10:20:57;;;;;;;5.97;4.80;;;;;;;24.69;48.83;100044.06;5049340;28;20037;-69
2022/05/23 10:23:25;;;;;;;11.07;5.57;;;;;;;24.31;47.66;100043.78;5031841;28;20124;-69
2022/05/23 10:26:18;;;;;;;7.53;4.57;;;;;;;24.38;47.83;100035.63;5029259;28;20049;-69
2022/05/23 10:28:50;;;;;;;10.02;5.18;;;;;;;23.98;50.66;100035.50;5011090;28;20068;-69
2022/05/23 10:31:29;;;;;;;9.07;5.10;;;;;;;23.74;51.09;100028.69;5011661;28;20044;-69
2022/05/23 10:34:14;;;;;;;11.35;5.38;;;;;;;23.91;50.13;100026.47;5011695;28;20056;-68
2022/05/23 10:36:43;;;;;;;10.07;5.20;;;;;;;23.78;50.80;100022.63;5011519;28;20054;-69
2022/05/23 10:42:35;;;;;;;7.32;5.22;;;;;;;23.94;51.18;100016.00;5009799;28;20042;-69
2022/05/23 10:45:21;;;;;;;8.88;4.70;;;;;;;24.19;52.17;100009.97;5009776;28;20053;-68
2022/05/23 10:48:10;;;;;;;10.57;4.97;;;;;;;23.81;50.67;100007.78;5010462;28;20053;-68
2022/05/23 10:50:50;;;;;;;8.85;5.03;;;;;;;23.64;52.37;100009.19;5043042;28;20044;-68
2022/05/23 10:53:28;;;;;;;8.85;5.35;;;;;;;23.87;52.04;100006.13;5049483;28;20041;-69
2022/05/23 10:56:15;;;;;;;12.55;4.50;;;;;;;23.90;50.93;99998.41;5049876;28;20079;-69
2022/05/23 10:58:45;;;;;;;8.52;5.63;;;;;;;23.64;51.67;99998.28;5051132;28;20076;-69
2022/05/23 11:01:43;;;;;;;7.60;4.97;;;;;;;23.71;53.60;99991.84;5050817;28;20049;-69
2022/05/23 11:04:33;;;;;;;8.15;5.53;;;;;;;23.70;56.13;99989.34;5051120;28;20036;-68
2022/05/23 11:07:06;;;;;;;8.90;5.07;;;;;;;23.95;56.39;99978.72;5051200;28;20783;-68
2022/05/23 11:09:50;;;;;;;8.75;5.25;;;;;;;23.60;53.65;99980.66;5050177;28;20119;-69
2022/05/23 11:12:41;;;;;;;11.85;6.50;;;;;;;23.64;54.95;99971.91;5050167;28;20265;-68
2022/05/23 11:15:29;;;;;;;9.95;5.15;;;;;;;23.61;54.82;99971.47;5050560;28;20763;-69
2022/05/23 11:18:11;;;;;;;11.07;5.75;;;;;;;23.97;56.33;99969.28;5051096;28;20082;-68
2022/05/23 11:20:41;;;;;;;6.90;3.10;;;;;;;23.51;50.88;99953.63;5051302;28;20029;-68
2022/05/23 11:23:27;;;;;;;4.15;3.50;;;;;;;23.62;50.40;99954.91;5048394;28;20105;-67
2022/05/23 11:26:14;;;;;;;5.07;3.25;;;;;;;24.13;50.94;99943.53;5050717;28;20517;-68
2022/05/23 11:34:32;;;;;;;5.03;2.40;;;;;;;25.27;45.34;99920.63;5029983;28;20140;-68
2022/05/23 11:39:52;;;;;;;7.22;2.50;;;;;;;27.16;43.10;99905.16;5030244;28;20159;-68
2022/05/23 11:42:55;;;;;;;4.80;2.55;;;;;;;25.52;44.39;99893.41;5030289;28;20041;-68
2022/05/23 11:45:57;;;;;;;3.90;2.30;;;;;;;25.63;44.63;99892.72;5028374;28;20060;-67
2022/05/23 11:51:25;;;;;;;5.03;2.90;;;;;;;26.14;46.81;99888.22;5014861;28;20049;-68
2022/05/23 11:53:56;;;;;;;5.72;2.95;;;;;;;26.33;46.99;99876.28;5014624;28;20052;-67
2022/05/23 11:56:31;;;;;;;4.47;2.60;;;;;;;25.58;45.50;99874.25;5012314;28;20041;-68
2022/05/23 11:58:57;;;;;;;4.00;2.92;;;;;;;24.98;45.96;99878.28;5013629;28;20034;-68
2022/05/23 12:01:26;;;;;;;7.30;2.80;;;;;;;26.45;45.40;99870.94;5013413;28;20578;-68
2022/05/23 12:03:55;;;;;;;5.80;3.17;;;;;;;26.50;43.93;99861.00;5012610;28;20048;-68
2022/05/23 12:06:24;;;;;;;5.72;2.65;;;;;;;26.69;45.32;99848.19;5013704;28;20088;-68
2022/05/23 12:09:13;;;;;;;8.70;3.30;;;;;;;26.21;44.68;99848.84;5013915;28;20057;-68
2022/05/23 12:11:41;;;;;;;4.03;2.75;;;;;;;26.00;44.54;99828.19;5024400;28;20514;-68
2022/05/23 12:14:20;;;;;;;7.32;3.60;;;;;;;25.63;45.23;99816.25;5011607;28;20107;-68
2022/05/23 12:16:55;;;;;;;6.95;3.30;;;;;;;26.03;44.04;99813.25;5014205;28;20045;-67
2022/05/23 12:19:38;;;;;;;6.15;3.13;;;;;;;26.18;46.23;99801.97;5014656;28;21173;-68
2022/05/23 12:22:13;;;;;;;9.15;3.13;;;;;;;25.50;43.74;99798.09;5023860;28;20446;-67
2022/05/23 12:24:58;;;;;;;10.05;3.53;;;;;;;25.50;46.34;99787.16;5035288;28;20509;-67
2022/05/23 12:27:28;;;;;;;5.80;3.00;;;;;;;25.98;46.15;99786.59;5034197;28;20686;-67
2022/05/23 12:30:20;;;;;;;5.30;3.13;;;;;;;26.20;44.51;99783.44;5032223;28;20037;-67
2022/05/23 12:32:58;;;;;;;6.70;3.38;;;;;;;25.84;46.14;99779.56;5034444;28;20040;-67
2022/05/23 12:35:48;;;;;;;7.93;3.15;;;;;;;26.08;45.71;99786.94;5034676;28;20087;-67
2022/05/23 12:38:41;;;;;;;6.10;3.13;;;;;;;26.24;43.92;99777.31;5034016;28;20639;-67
2022/05/23 12:41:27;;;;;;;5.03;3.10;;;;;;;26.76;43.42;99777.00;5033140;28;20051;-67
2022/05/23 12:44:14;;;;;;;7.40;3.38;;;;;;;27.58;44.75;99767.25;5032172;28;20056;-67
2022/05/23 12:47:06;;;;;;;5.00;3.05;;;;;;;26.81;43.76;99775.25;5034997;28;20048;-68
2022/05/23 12:49:40;;;;;;;7.05;2.92;;;;;;;26.64;41.57;99770.63;5042718;28;20048;-68
2022/05/23 12:52:24;;;;;;;6.35;3.38;;;;;;;26.40;44.64;99775.06;5049950;28;20122;-68